createdAt,value
2023-03-22T00:01:11.700Z,21.43
2023-03-22T00:03:40.986Z,19.80
2023-03-22T00:06:08.744Z,26.63
2023-03-22T00:08:35.745Z,34.33
2023-03-22T00:11:05.885Z,41.10
2023-03-22T00:13:35.383Z,30.20
2023-03-22T00:16:02.879Z,35.43
2023-03-22T00:18:30.797Z,25.87
2023-03-22T00:21:00.519Z,25.33
2023-03-22T00:23:27.906Z,23.83
2023-03-22T00:25:55.355Z,27.73
2023-03-22T00:28:22.308Z,22.93
2023-03-22T00:30:54.021Z,23.13
2023-03-22T00:33:20.967Z,20.80
2023-03-22T00:35:57.252Z,29.90
2023-03-22T00:38:41.143Z,25.23
2023-03-22T00:41:09.879Z,25.80
2023-03-22T00:43:37.138Z,33.87
2023-03-22T00:46:04.777Z,33.10
2023-03-22T00:48:31.740Z,31.63
2023-03-22T00:50:58.589Z,29.70
2023-03-22T00:53:29.016Z,31.07
2023-03-22T00:55:56.219Z,33.63
2023-03-22T00:58:23.249Z,32.60
2023-03-22T01:00:50.312Z,34.60
2023-03-22T01:03:17.546Z,33.03
2023-03-22T01:05:45.380Z,34.60
2023-03-22T01:08:12.902Z,33.77
2023-03-22T01:10:42.308Z,40.93
2023-03-22T01:13:10.733Z,34.17
2023-03-22T01:15:37.730Z,34.33
2023-03-22T01:18:04.766Z,32.90
2023-03-22T01:20:32.235Z,32.03
2023-03-22T01:22:59.537Z,36.93
2023-03-22T01:25:26.446Z,34.03
2023-03-22T01:27:54.679Z,30.87
2023-03-22T01:30:21.554Z,37.10
2023-03-22T01:32:48.387Z,30.10
2023-03-22T01:35:15.591Z,36.67
2023-03-22T01:37:42.446Z,30.77
2023-03-22T01:40:16.345Z,32.17
2023-03-22T01:42:43.223Z,35.17
2023-03-22T01:45:35.817Z,36.63
2023-03-22T01:48:07.562Z,33.53
2023-03-22T01:50:37.506Z,32.87
2023-03-22T01:53:06.616Z,32.17
2023-03-22T01:55:34.072Z,35.57
2023-03-22T01:58:02.860Z,33.03
2023-03-22T02:00:31.930Z,35.50
2023-03-22T02:02:59.101Z,37.47
2023-03-22T02:05:27.584Z,34.53
2023-03-22T02:07:54.627Z,37.17
2023-03-22T02:10:25.555Z,32.13
2023-03-22T02:13:03.626Z,37.63
2023-03-22T02:15:35.921Z,35.23
2023-03-22T02:18:18.525Z,40.73
2023-03-22T02:21:12.335Z,36.97
2023-03-22T02:24:08.929Z,33.93
2023-03-22T02:26:59.294Z,34.10
2023-03-22T02:29:36.293Z,35.33
2023-03-22T02:32:42.117Z,36.00
2023-03-22T02:35:33.435Z,35.40
2023-03-22T02:38:31.526Z,36.73
2023-03-22T02:41:10.637Z,32.60
2023-03-22T02:43:42.054Z,26.17
2023-03-22T02:46:11.705Z,24.33
2023-03-22T02:48:45.343Z,24.57
2023-03-22T02:51:18.962Z,23.63
2023-03-22T02:53:52.431Z,37.03
2023-03-22T02:56:25.512Z,64.77
2023-03-22T02:58:54.899Z,28.30
2023-03-22T03:01:26.581Z,182.07
2023-03-22T03:03:57.770Z,52.30
2023-03-22T03:06:28.954Z,25.77
2023-03-22T03:08:58.024Z,23.73
2023-03-22T03:11:26.244Z,23.90
2023-03-22T03:13:53.091Z,31.07
2023-03-22T03:16:22.693Z,60.90
2023-03-22T03:18:55.669Z,73.67
2023-03-22T03:21:32.693Z,76.13
2023-03-22T03:24:09.531Z,39.53
2023-03-22T03:26:46.422Z,37.10
2023-03-22T03:29:21.347Z,41.50
2023-03-22T03:31:54.816Z,26.30
2023-03-22T03:34:26.184Z,31.27
2023-03-22T03:36:57.933Z,24.30
2023-03-22T03:39:28.276Z,37.07
2023-03-22T03:41:57.368Z,29.43
2023-03-22T03:44:24.638Z,31.87
2023-03-22T03:46:52.870Z,30.67
2023-03-22T03:49:21.756Z,31.57
2023-03-22T03:51:51.555Z,32.47
2023-03-22T03:54:19.196Z,29.23
2023-03-22T03:56:47.684Z,33.80
2023-03-22T03:59:16.210Z,27.60
2023-03-22T04:01:49.936Z,25.20
2023-03-22T04:04:18.138Z,30.70
2023-03-22T04:06:45.007Z,31.03
2023-03-22T04:09:11.905Z,36.60
2023-03-22T04:11:38.780Z,31.20
2023-03-22T04:14:05.961Z,28.57
2023-03-22T04:16:34.191Z,28.17
2023-03-22T04:19:01.045Z,23.77
2023-03-22T04:21:27.903Z,28.30
2023-03-22T04:23:55.580Z,24.30
2023-03-22T04:26:23.353Z,25.07
2023-03-22T04:28:51.364Z,24.67
2023-03-22T04:31:18.486Z,25.50
2023-03-22T04:33:46.957Z,22.97
2023-03-22T04:36:17.622Z,22.57
2023-03-22T04:38:44.582Z,24.33
2023-03-22T04:41:11.691Z,22.97
2023-03-22T04:43:39.414Z,23.20
2023-03-22T04:46:10.003Z,22.80
2023-03-22T04:48:37.923Z,19.73
2023-03-22T04:51:07.807Z,19.30
2023-03-22T04:53:38.783Z,21.23
2023-03-22T04:56:07.628Z,20.77
2023-03-22T04:58:36.372Z,19.40
2023-03-22T05:01:03.989Z,22.77
2023-03-22T05:03:30.753Z,21.17
2023-03-22T05:05:59.757Z,23.50
2023-03-22T05:08:29.876Z,22.63
2023-03-22T05:10:58.438Z,23.60
2023-03-22T05:13:26.923Z,23.97
2023-03-22T05:15:54.181Z,20.63
2023-03-22T05:18:26.255Z,23.20
2023-03-22T05:20:55.672Z,21.20
2023-03-22T05:23:23.087Z,17.63
2023-03-22T05:25:52.441Z,18.33
2023-03-22T05:28:21.455Z,19.63
2023-03-22T05:30:49.548Z,14.43
2023-03-22T05:33:21.509Z,20.63
2023-03-22T05:35:50.055Z,22.60
2023-03-22T05:38:17.094Z,21.83
2023-03-22T05:40:43.954Z,25.53
2023-03-22T05:43:12.849Z,27.00
2023-03-22T05:45:39.737Z,24.70
2023-03-22T05:48:07.170Z,21.53
2023-03-22T05:50:34.768Z,22.80
2023-03-22T05:53:03.320Z,20.83
2023-03-22T05:55:32.089Z,24.77
2023-03-22T05:57:59.329Z,23.87
2023-03-22T06:00:31.879Z,25.57
2023-03-22T06:03:03.180Z,25.07
2023-03-22T06:05:36.459Z,26.57
2023-03-22T06:08:03.985Z,25.30
2023-03-22T06:10:31.030Z,26.20
2023-03-22T06:12:58.062Z,21.03
2023-03-22T06:15:24.892Z,22.00
2023-03-22T06:17:53.028Z,25.80
2023-03-22T06:20:20.065Z,20.10
2023-03-22T06:22:46.959Z,19.93
2023-03-22T06:25:14.732Z,18.20
2023-03-22T06:27:41.607Z,16.80
2023-03-22T06:30:09.441Z,19.37
2023-03-22T06:32:36.335Z,17.53
2023-03-22T06:35:05.341Z,18.37
2023-03-22T06:37:32.164Z,17.97
2023-03-22T06:39:58.991Z,14.57
2023-03-22T06:42:26.169Z,13.10
2023-03-22T06:44:52.960Z,13.20
2023-03-22T06:47:19.908Z,14.50
2023-03-22T06:49:46.752Z,12.33
2023-03-22T06:52:15.022Z,10.90
2023-03-22T06:54:41.966Z,17.13
2023-03-22T06:57:08.926Z,14.30
2023-03-22T06:59:35.940Z,15.83
2023-03-22T07:02:02.813Z,16.20
2023-03-22T07:04:29.890Z,13.17
2023-03-22T07:06:56.870Z,16.83
2023-03-22T07:09:26.941Z,14.73
2023-03-22T07:11:53.960Z,17.43
2023-03-22T07:14:21.314Z,15.17
2023-03-22T07:16:48.132Z,17.03
2023-03-22T07:19:15.530Z,18.40
2023-03-22T07:21:42.438Z,16.40
2023-03-22T07:24:11.909Z,20.87
2023-03-22T07:26:41.311Z,15.13
2023-03-22T07:29:08.560Z,14.80
2023-03-22T07:31:36.519Z,15.03
2023-03-22T07:34:04.084Z,12.17
2023-03-22T07:36:31.135Z,10.03
2023-03-22T07:38:58.105Z,8.83
2023-03-22T07:41:26.918Z,10.77
2023-03-22T07:44:04.806Z,8.97
2023-03-22T07:46:38.283Z,8.57
2023-03-22T07:49:05.495Z,8.07
2023-03-22T07:51:32.348Z,8.37
2023-03-22T07:53:59.327Z,7.73
2023-03-22T07:56:26.340Z,8.23
2023-03-22T07:58:53.350Z,7.80
2023-03-22T08:01:21.768Z,8.13
2023-03-22T08:03:48.711Z,8.63
2023-03-22T08:06:16.413Z,8.87
2023-03-22T08:08:43.615Z,9.23
2023-03-22T08:11:12.283Z,8.43
2023-03-22T08:13:39.736Z,8.00
2023-03-22T08:16:07.052Z,7.93
2023-03-22T08:18:35.455Z,9.17
2023-03-22T08:21:02.802Z,6.70
2023-03-22T08:23:40.999Z,10.07
2023-03-22T08:26:09.040Z,9.80
2023-03-22T08:28:36.831Z,9.40
2023-03-22T08:31:12.713Z,8.07
2023-03-22T08:33:43.073Z,8.83
2023-03-22T08:36:13.018Z,8.63
2023-03-22T08:38:39.809Z,8.50
2023-03-22T08:41:07.073Z,7.73
2023-03-22T08:43:33.921Z,11.87
2023-03-22T08:46:00.835Z,8.43
2023-03-22T08:48:30.342Z,7.27
2023-03-22T08:50:58.646Z,7.30
2023-03-22T08:53:25.581Z,11.60
2023-03-22T08:55:52.550Z,7.53
2023-03-22T08:58:21.987Z,7.73
2023-03-22T09:00:49.899Z,5.33
2023-03-22T09:03:17.051Z,6.33
2023-03-22T09:05:44.069Z,8.27
2023-03-22T09:08:18.433Z,5.73
2023-03-22T09:10:47.944Z,8.47
2023-03-22T09:13:16.788Z,10.03
2023-03-22T09:15:44.914Z,5.33
2023-03-22T09:18:12.200Z,5.30
2023-03-22T09:20:39.700Z,5.10
2023-03-22T09:23:07.018Z,8.13
2023-03-22T09:25:35.370Z,9.97
2023-03-22T09:28:02.493Z,8.00
2023-03-22T09:30:29.535Z,6.43
2023-03-22T09:32:56.647Z,6.40
2023-03-22T09:35:23.563Z,7.40
2023-03-22T09:37:53.210Z,5.97
2023-03-22T09:40:21.797Z,7.07
2023-03-22T09:42:52.367Z,8.37
2023-03-22T09:45:25.154Z,8.90
2023-03-22T09:47:54.710Z,5.47
2023-03-22T09:50:23.968Z,7.33
2023-03-22T09:52:51.820Z,7.80
2023-03-22T09:55:21.847Z,3.97
2023-03-22T09:57:58.858Z,4.27
2023-03-22T10:00:38.237Z,4.83
2023-03-22T10:03:17.770Z,4.57
2023-03-22T10:05:50.234Z,4.83
2023-03-22T10:08:36.701Z,7.27
2023-03-22T10:11:09.118Z,2.40
2023-03-22T10:13:41.702Z,2.60
2023-03-22T10:16:13.542Z,3.60
2023-03-22T10:18:45.371Z,3.00
2023-03-22T10:21:14.420Z,3.43
2023-03-22T10:23:46.601Z,2.93
2023-03-22T10:26:20.990Z,6.40
2023-03-22T10:28:56.735Z,3.80
2023-03-22T10:31:26.602Z,3.57
2023-03-22T10:33:58.778Z,3.97
2023-03-22T10:36:31.229Z,1.83
2023-03-22T10:39:04.010Z,2.70
2023-03-22T10:41:33.566Z,6.10
2023-03-22T10:44:04.948Z,2.60
2023-03-22T10:46:37.107Z,6.00
2023-03-22T10:49:05.455Z,1.47
2023-03-22T10:51:38.968Z,4.73
2023-03-22T10:54:06.653Z,1.87
2023-03-22T10:56:33.527Z,4.67
2023-03-22T10:59:01.774Z,3.00
2023-03-22T11:01:32.067Z,4.13
2023-03-22T11:04:05.798Z,4.20
2023-03-22T11:06:38.344Z,3.50
2023-03-22T11:09:12.983Z,3.53
2023-03-22T11:11:48.011Z,3.83
2023-03-22T11:14:20.321Z,3.00
2023-03-22T11:16:52.637Z,7.60
2023-03-22T11:19:25.804Z,3.20
2023-03-22T11:21:53.964Z,1.83
2023-03-22T11:24:22.182Z,1.80
2023-03-22T11:27:03.294Z,2.53
2023-03-22T11:29:40.354Z,1.87
2023-03-22T11:32:21.967Z,4.43
2023-03-22T11:34:59.588Z,1.90
2023-03-22T11:37:26.711Z,1.17
2023-03-22T11:40:01.585Z,1.00
2023-03-22T11:42:28.825Z,1.20
2023-03-22T11:44:57.637Z,2.33
2023-03-22T11:47:30.405Z,2.07
2023-03-22T11:49:57.589Z,2.30
2023-03-22T11:52:26.947Z,2.77
2023-03-22T11:54:55.202Z,4.20
2023-03-22T11:57:25.245Z,2.07
2023-03-22T11:59:59.761Z,0.93
2023-03-22T12:02:29.846Z,2.97
2023-03-22T12:05:03.084Z,2.47
2023-03-22T12:07:34.281Z,1.57
2023-03-22T12:10:06.462Z,1.50
2023-03-22T12:12:36.758Z,4.13
2023-03-22T12:15:11.926Z,1.43
2023-03-22T12:17:45.049Z,2.43
2023-03-22T12:20:21.031Z,1.30
2023-03-22T12:22:52.700Z,2.47
2023-03-22T12:25:22.745Z,1.10
2023-03-22T12:27:53.956Z,1.73
2023-03-22T12:30:25.629Z,2.03
2023-03-22T12:32:58.677Z,0.77
2023-03-22T12:35:29.235Z,2.93
2023-03-22T12:37:58.690Z,2.27
2023-03-22T12:40:28.994Z,1.33
2023-03-22T12:43:02.440Z,0.83
2023-03-22T12:45:33.450Z,1.70
2023-03-22T12:48:07.372Z,1.73
2023-03-22T12:50:38.941Z,2.60
2023-03-22T12:53:06.640Z,1.50
2023-03-22T12:55:36.732Z,3.50
2023-03-22T12:58:06.117Z,2.73
2023-03-22T13:00:39.761Z,1.33
2023-03-22T13:03:18.842Z,3.57
2023-03-22T13:05:47.902Z,1.30
2023-03-22T13:08:19.919Z,0.90
2023-03-22T13:11:05.468Z,1.63
2023-03-22T13:13:44.268Z,1.07
2023-03-22T13:16:22.321Z,6.13
2023-03-22T13:19:17.347Z,0.70
2023-03-22T13:21:45.636Z,5.00
2023-03-22T13:24:23.469Z,1.23
2023-03-22T13:26:53.264Z,2.47
2023-03-22T13:29:22.167Z,1.43
2023-03-22T13:31:58.456Z,1.00
2023-03-22T13:34:38.955Z,1.40
2023-03-22T13:37:10.998Z,1.40
2023-03-22T13:39:39.346Z,0.90
2023-03-22T13:42:19.124Z,2.20
2023-03-22T13:44:53.956Z,3.43
2023-03-22T13:47:35.177Z,1.17
2023-03-22T13:50:14.586Z,3.20
2023-03-22T13:52:44.958Z,1.27
2023-03-22T13:55:43.708Z,2.20
2023-03-22T13:58:36.603Z,4.17
2023-03-22T14:01:06.144Z,2.80
2023-03-22T14:03:36.806Z,0.87
2023-03-22T14:06:11.532Z,0.67
2023-03-22T14:08:41.923Z,1.53
2023-03-22T14:11:20.334Z,2.83
2023-03-22T14:13:51.337Z,2.50
2023-03-22T14:16:27.853Z,0.60
2023-03-22T14:18:56.614Z,1.70
2023-03-22T14:21:30.935Z,1.47
